sensor_id;sensor_type;location;lat;lon;timestamp;pressure;altitude;pressure_sealevel;temperature;humidity
40372;BME280;28564;53.346;-6.554;2023-07-13T00:02:22;100571.63;;;17.77;45.94
40372;BME280;28564;53.346;-6.554;2023-07-13T00:04:49;100570.38;;;17.57;45.87
40372;BME280;28564;53.346;-6.554;2023-07-13T00:07:17;100573.63;;;17.59;45.80
40372;BME280;28564;53.346;-6.554;2023-07-13T00:09:43;100571.52;;;17.81;45.83
40372;BME280;28564;53.346;-6.554;2023-07-13T00:12:23;100571.29;;;17.54;45.84
40372;BME280;28564;53.346;-6.554;2023-07-13T00:14:56;100572.78;;;17.58;45.74
40372;BME280;28564;53.346;-6.554;2023-07-13T00:17:24;100570.33;;;17.60;45.69
40372;BME280;28564;53.346;-6.554;2023-07-13T00:19:52;100569.69;;;17.67;45.59
40372;BME280;28564;53.346;-6.554;2023-07-13T00:22:20;100569.31;;;17.70;45.51
40372;BME280;28564;53.346;-6.554;2023-07-13T00:24:47;100572.20;;;18.03;45.41
40372;BME280;28564;53.346;-6.554;2023-07-13T00:27:14;100573.49;;;17.85;45.33
40372;BME280;28564;53.346;-6.554;2023-07-13T00:29:41;100573.52;;;18.20;45.26
40372;BME280;28564;53.346;-6.554;2023-07-13T00:32:09;100572.96;;;17.96;45.16
40372;BME280;28564;53.346;-6.554;2023-07-13T00:34:36;100576.32;;;17.93;45.14
40372;BME280;28564;53.346;-6.554;2023-07-13T00:37:04;100575.36;;;17.89;45.18
40372;BME280;28564;53.346;-6.554;2023-07-13T00:39:33;100575.20;;;17.61;45.22
40372;BME280;28564;53.346;-6.554;2023-07-13T00:42:00;100574.03;;;17.76;45.31
40372;BME280;28564;53.346;-6.554;2023-07-13T00:44:28;100571.94;;;17.71;45.40
40372;BME280;28564;53.346;-6.554;2023-07-13T00:46:55;100570.84;;;17.73;45.40
40372;BME280;28564;53.346;-6.554;2023-07-13T00:49:25;100571.14;;;17.70;45.45
40372;BME280;28564;53.346;-6.554;2023-07-13T00:51:56;100571.02;;;17.69;45.47
40372;BME280;28564;53.346;-6.554;2023-07-13T00:54:27;100569.82;;;17.74;45.44
40372;BME280;28564;53.346;-6.554;2023-07-13T00:56:59;100574.81;;;17.78;45.36
40372;BME280;28564;53.346;-6.554;2023-07-13T00:59:28;100580.20;;;17.81;45.33
40372;BME280;28564;53.346;-6.554;2023-07-13T01:01:55;100582.55;;;17.82;45.36
40372;BME280;28564;53.346;-6.554;2023-07-13T01:04:24;100581.99;;;17.83;45.37
40372;BME280;28564;53.346;-6.554;2023-07-13T01:06:52;100579.03;;;17.82;45.33
40372;BME280;28564;53.346;-6.554;2023-07-13T01:09:20;100576.78;;;17.77;45.40
40372;BME280;28564;53.346;-6.554;2023-07-13T01:11:48;100576.20;;;17.67;45.48
40372;BME280;28564;53.346;-6.554;2023-07-13T01:14:16;100572.92;;;17.55;45.72
40372;BME280;28564;53.346;-6.554;2023-07-13T01:16:45;100570.49;;;17.45;45.92
40372;BME280;28564;53.346;-6.554;2023-07-13T01:19:24;100566.42;;;17.64;46.06
40372;BME280;28564;53.346;-6.554;2023-07-13T01:21:53;100563.42;;;17.42;46.09
40372;BME280;28564;53.346;-6.554;2023-07-13T01:24:21;100558.25;;;17.43;46.02
40372;BME280;28564;53.346;-6.554;2023-07-13T01:26:48;100555.80;;;17.41;46.02
40372;BME280;28564;53.346;-6.554;2023-07-13T01:29:15;100556.13;;;17.65;46.00
40372;BME280;28564;53.346;-6.554;2023-07-13T01:31:42;100559.28;;;17.58;46.02
40372;BME280;28564;53.346;-6.554;2023-07-13T01:34:14;100557.00;;;17.44;46.11
40372;BME280;28564;53.346;-6.554;2023-07-13T01:36:41;100553.13;;;17.32;46.29
40372;BME280;28564;53.346;-6.554;2023-07-13T01:39:08;100554.15;;;17.00;46.38
40372;BME280;28564;53.346;-6.554;2023-07-13T01:41:35;100555.77;;;17.24;46.44
40372;BME280;28564;53.346;-6.554;2023-07-13T01:44:02;100558.69;;;17.45;46.47
40372;BME280;28564;53.346;-6.554;2023-07-13T01:46:29;100559.73;;;16.98;46.45
40372;BME280;28564;53.346;-6.554;2023-07-13T01:48:56;100558.66;;;17.18;46.52
40372;BME280;28564;53.346;-6.554;2023-07-13T01:51:24;100556.58;;;17.16;46.60
40372;BME280;28564;53.346;-6.554;2023-07-13T01:53:52;100555.27;;;17.40;46.62
40372;BME280;28564;53.346;-6.554;2023-07-13T01:56:19;100555.18;;;17.18;46.56
40372;BME280;28564;53.346;-6.554;2023-07-13T01:58:46;100553.57;;;17.40;46.57
40372;BME280;28564;53.346;-6.554;2023-07-13T02:01:13;100554.23;;;16.91;46.56
40372;BME280;28564;53.346;-6.554;2023-07-13T02:03:40;100554.94;;;17.40;46.53
40372;BME280;28564;53.346;-6.554;2023-07-13T02:06:07;100553.05;;;17.20;46.48
40372;BME280;28564;53.346;-6.554;2023-07-13T02:08:34;100552.19;;;16.95;46.44
40372;BME280;28564;53.346;-6.554;2023-07-13T02:11:03;100553.46;;;16.91;46.45
40372;BME280;28564;53.346;-6.554;2023-07-13T02:13:30;100556.73;;;17.32;46.62
40372;BME280;28564;53.346;-6.554;2023-07-13T02:15:57;100552.27;;;16.73;46.79
40372;BME280;28564;53.346;-6.554;2023-07-13T02:18:25;100554.29;;;17.15;47.05
40372;BME280;28564;53.346;-6.554;2023-07-13T02:20:52;100553.03;;;17.09;47.20
40372;BME280;28564;53.346;-6.554;2023-07-13T02:23:20;100553.92;;;17.04;47.35
40372;BME280;28564;53.346;-6.554;2023-07-13T02:25:46;100550.49;;;16.80;47.45
40372;BME280;28564;53.346;-6.554;2023-07-13T02:28:14;100544.19;;;16.76;47.55
40372;BME280;28564;53.346;-6.554;2023-07-13T02:30:41;100538.47;;;16.75;47.62
40372;BME280;28564;53.346;-6.554;2023-07-13T02:33:08;100534.64;;;16.77;47.62
40372;BME280;28564;53.346;-6.554;2023-07-13T02:35:35;100538.11;;;17.02;47.58
40372;BME280;28564;53.346;-6.554;2023-07-13T02:38:02;100537.92;;;16.81;47.60
40372;BME280;28564;53.346;-6.554;2023-07-13T02:40:29;100537.29;;;16.84;47.56
40372;BME280;28564;53.346;-6.554;2023-07-13T02:42:56;100540.34;;;16.88;47.49
40372;BME280;28564;53.346;-6.554;2023-07-13T02:45:24;100545.92;;;16.93;47.44
40372;BME280;28564;53.346;-6.554;2023-07-13T02:47:51;100549.37;;;17.17;47.38
40372;BME280;28564;53.346;-6.554;2023-07-13T02:50:18;100554.34;;;16.98;47.36
40372;BME280;28564;53.346;-6.554;2023-07-13T02:52:45;100555.42;;;16.99;47.34
40372;BME280;28564;53.346;-6.554;2023-07-13T02:55:12;100555.67;;;16.96;47.37
40372;BME280;28564;53.346;-6.554;2023-07-13T02:57:39;100552.96;;;16.96;47.35
40372;BME280;28564;53.346;-6.554;2023-07-13T03:00:08;100549.48;;;17.19;47.34
40372;BME280;28564;53.346;-6.554;2023-07-13T03:02:35;100549.29;;;16.76;47.29
40372;BME280;28564;53.346;-6.554;2023-07-13T03:05:04;100548.78;;;17.30;47.20
40372;BME280;28564;53.346;-6.554;2023-07-13T03:07:31;100548.32;;;17.35;47.12
40372;BME280;28564;53.346;-6.554;2023-07-13T03:09:58;100546.79;;;17.37;47.05
40372;BME280;28564;53.346;-6.554;2023-07-13T03:12:25;100547.42;;;17.17;47.05
40372;BME280;28564;53.346;-6.554;2023-07-13T03:14:53;100547.04;;;17.43;47.09
40372;BME280;28564;53.346;-6.554;2023-07-13T03:17:20;100545.54;;;16.98;47.07
40372;BME280;28564;53.346;-6.554;2023-07-13T03:19:48;100547.98;;;17.02;47.01
40372;BME280;28564;53.346;-6.554;2023-07-13T03:22:15;100543.71;;;17.52;46.97
40372;BME280;28564;53.346;-6.554;2023-07-13T03:24:42;100548.56;;;17.10;46.92
40372;BME280;28564;53.346;-6.554;2023-07-13T03:27:09;100558.00;;;17.21;46.80
40372;BME280;28564;53.346;-6.554;2023-07-13T03:29:36;100559.39;;;17.26;46.59
40372;BME280;28564;53.346;-6.554;2023-07-13T03:32:04;100560.84;;;17.17;46.45
40372;BME280;28564;53.346;-6.554;2023-07-13T03:34:31;100560.13;;;16.91;46.81
40372;BME280;28564;53.346;-6.554;2023-07-13T03:36:58;100560.64;;;16.98;47.25
40372;BME280;28564;53.346;-6.554;2023-07-13T03:39:25;100556.74;;;16.81;47.56
40372;BME280;28564;53.346;-6.554;2023-07-13T03:41:53;100551.65;;;16.97;47.65
40372;BME280;28564;53.346;-6.554;2023-07-13T03:44:20;100553.52;;;16.96;47.64
40372;BME280;28564;53.346;-6.554;2023-07-13T03:46:47;100553.36;;;16.95;47.62
40372;BME280;28564;53.346;-6.554;2023-07-13T03:49:14;100550.17;;;16.97;47.64
40372;BME280;28564;53.346;-6.554;2023-07-13T03:51:41;100554.51;;;16.79;47.64
40372;BME280;28564;53.346;-6.554;2023-07-13T03:54:08;100552.35;;;17.06;47.61
40372;BME280;28564;53.346;-6.554;2023-07-13T03:56:35;100560.02;;;16.89;47.54
40372;BME280;28564;53.346;-6.554;2023-07-13T03:59:02;100559.29;;;16.94;47.43
40372;BME280;28564;53.346;-6.554;2023-07-13T04:01:30;100559.51;;;16.91;47.34
40372;BME280;28564;53.346;-6.554;2023-07-13T04:03:57;100556.49;;;17.10;47.34
40372;BME280;28564;53.346;-6.554;2023-07-13T04:06:27;100556.51;;;17.10;47.43
40372;BME280;28564;53.346;-6.554;2023-07-13T04:08:57;100557.65;;;17.16;47.46
40372;BME280;28564;53.346;-6.554;2023-07-13T04:11:26;100557.40;;;16.98;47.42
40372;BME280;28564;53.346;-6.554;2023-07-13T04:13:54;100559.28;;;17.24;47.38
40372;BME280;28564;53.346;-6.554;2023-07-13T04:16:22;100560.40;;;17.11;47.36
40372;BME280;28564;53.346;-6.554;2023-07-13T04:18:50;100557.35;;;17.43;47.22
40372;BME280;28564;53.346;-6.554;2023-07-13T04:21:18;100560.01;;;17.20;47.14
40372;BME280;28564;53.346;-6.554;2023-07-13T04:23:45;100567.14;;;17.40;47.07
40372;BME280;28564;53.346;-6.554;2023-07-13T04:26:12;100571.27;;;17.26;47.15
40372;BME280;28564;53.346;-6.554;2023-07-13T04:28:39;100570.78;;;17.07;47.27
40372;BME280;28564;53.346;-6.554;2023-07-13T04:31:06;100572.90;;;16.96;47.57
40372;BME280;28564;53.346;-6.554;2023-07-13T04:33:33;100576.99;;;16.88;47.82
40372;BME280;28564;53.346;-6.554;2023-07-13T04:36:01;100577.40;;;16.85;47.96
40372;BME280;28564;53.346;-6.554;2023-07-13T04:38:29;100578.78;;;16.62;48.02
40372;BME280;28564;53.346;-6.554;2023-07-13T04:41:01;100579.62;;;16.36;48.09
40372;BME280;28564;53.346;-6.554;2023-07-13T04:43:28;100578.06;;;16.87;48.17
40372;BME280;28564;53.346;-6.554;2023-07-13T04:45:57;100577.52;;;16.96;48.04
40372;BME280;28564;53.346;-6.554;2023-07-13T04:48:24;100577.77;;;16.75;47.81
40372;BME280;28564;53.346;-6.554;2023-07-13T04:50:55;100578.71;;;16.96;47.85
40372;BME280;28564;53.346;-6.554;2023-07-13T04:53:23;100581.87;;;16.95;47.99
40372;BME280;28564;53.346;-6.554;2023-07-13T04:55:51;100589.19;;;16.99;48.09
40372;BME280;28564;53.346;-6.554;2023-07-13T04:58:18;100593.89;;;16.85;48.20
40372;BME280;28564;53.346;-6.554;2023-07-13T05:00:45;100593.56;;;16.65;48.16
40372;BME280;28564;53.346;-6.554;2023-07-13T05:03:13;100596.44;;;16.98;48.17
40372;BME280;28564;53.346;-6.554;2023-07-13T05:05:40;100592.76;;;17.25;48.18
40372;BME280;28564;53.346;-6.554;2023-07-13T05:08:07;100590.24;;;17.36;48.07
40372;BME280;28564;53.346;-6.554;2023-07-13T05:10:35;100585.76;;;17.44;47.91
40372;BME280;28564;53.346;-6.554;2023-07-13T05:13:02;100589.21;;;17.50;47.79
40372;BME280;28564;53.346;-6.554;2023-07-13T05:15:30;100588.73;;;17.31;47.67
40372;BME280;28564;53.346;-6.554;2023-07-13T05:17:57;100590.24;;;17.03;47.73
40372;BME280;28564;53.346;-6.554;2023-07-13T05:20:24;100589.84;;;17.51;47.92
40372;BME280;28564;53.346;-6.554;2023-07-13T05:22:51;100593.89;;;17.35;47.99
40372;BME280;28564;53.346;-6.554;2023-07-13T05:25:19;100598.98;;;17.42;47.96
40372;BME280;28564;53.346;-6.554;2023-07-13T05:27:46;100600.69;;;17.52;47.96
40372;BME280;28564;53.346;-6.554;2023-07-13T05:30:13;100601.83;;;17.31;47.88
40372;BME280;28564;53.346;-6.554;2023-07-13T05:32:41;100600.59;;;17.37;47.89
40372;BME280;28564;53.346;-6.554;2023-07-13T05:35:08;100597.90;;;17.69;47.93
40372;BME280;28564;53.346;-6.554;2023-07-13T05:37:37;100593.89;;;17.48;47.83
40372;BME280;28564;53.346;-6.554;2023-07-13T05:40:06;100592.68;;;17.52;47.75
40372;BME280;28564;53.346;-6.554;2023-07-13T05:42:34;100590.85;;;17.55;47.67
40372;BME280;28564;53.346;-6.554;2023-07-13T05:45:02;100592.03;;;17.56;47.62
40372;BME280;28564;53.346;-6.554;2023-07-13T05:47:30;100594.48;;;17.60;47.59
40372;BME280;28564;53.346;-6.554;2023-07-13T05:49:57;100599.10;;;17.64;47.54
40372;BME280;28564;53.346;-6.554;2023-07-13T05:52:24;100606.59;;;17.73;47.65
40372;BME280;28564;53.346;-6.554;2023-07-13T05:54:51;100608.55;;;17.82;47.66
40372;BME280;28564;53.346;-6.554;2023-07-13T05:57:18;100609.27;;;17.92;47.60
40372;BME280;28564;53.346;-6.554;2023-07-13T05:59:45;100609.30;;;17.93;47.55
40372;BME280;28564;53.346;-6.554;2023-07-13T06:02:12;100611.47;;;17.97;47.65
40372;BME280;28564;53.346;-6.554;2023-07-13T06:04:39;100611.71;;;17.96;47.67
40372;BME280;28564;53.346;-6.554;2023-07-13T06:07:06;100614.78;;;17.79;47.72
40372;BME280;28564;53.346;-6.554;2023-07-13T06:09:34;100619.65;;;18.13;47.67
40372;BME280;28564;53.346;-6.554;2023-07-13T06:12:01;100627.13;;;17.72;47.66
40372;BME280;28564;53.346;-6.554;2023-07-13T06:14:28;100621.37;;;18.03;47.55
40372;BME280;28564;53.346;-6.554;2023-07-13T06:16:55;100624.95;;;18.30;47.45
40372;BME280;28564;53.346;-6.554;2023-07-13T06:19:22;100627.38;;;18.17;47.40
40372;BME280;28564;53.346;-6.554;2023-07-13T06:21:49;100629.53;;;18.06;47.40
40372;BME280;28564;53.346;-6.554;2023-07-13T06:24:17;100630.36;;;18.48;47.22
40372;BME280;28564;53.346;-6.554;2023-07-13T06:26:44;100631.47;;;18.58;47.14
40372;BME280;28564;53.346;-6.554;2023-07-13T06:29:11;100635.19;;;18.35;46.92
40372;BME280;28564;53.346;-6.554;2023-07-13T06:31:38;100633.47;;;18.61;46.89
40372;BME280;28564;53.346;-6.554;2023-07-13T06:34:05;100630.94;;;18.39;46.91
40372;BME280;28564;53.346;-6.554;2023-07-13T06:36:32;100633.93;;;18.44;46.72
40372;BME280;28564;53.346;-6.554;2023-07-13T06:38:59;100633.07;;;18.42;46.59
40372;BME280;28564;53.346;-6.554;2023-07-13T06:41:26;100631.99;;;18.40;46.55
40372;BME280;28564;53.346;-6.554;2023-07-13T06:43:53;100626.73;;;18.38;46.58
40372;BME280;28564;53.346;-6.554;2023-07-13T06:46:21;100626.97;;;18.42;46.38
40372;BME280;28564;53.346;-6.554;2023-07-13T06:48:48;100629.65;;;18.49;46.57
40372;BME280;28564;53.346;-6.554;2023-07-13T06:51:15;100636.01;;;18.83;46.69
40372;BME280;28564;53.346;-6.554;2023-07-13T06:53:42;100642.29;;;18.62;46.42
40372;BME280;28564;53.346;-6.554;2023-07-13T06:56:10;100643.34;;;18.64;46.51
40372;BME280;28564;53.346;-6.554;2023-07-13T06:58:37;100641.01;;;18.76;46.57
40372;BME280;28564;53.346;-6.554;2023-07-13T07:01:05;100642.70;;;18.84;46.30
40372;BME280;28564;53.346;-6.554;2023-07-13T07:03:32;100646.59;;;18.91;46.29
40372;BME280;28564;53.346;-6.554;2023-07-13T07:06:01;100640.10;;;18.69;46.04
40372;BME280;28564;53.346;-6.554;2023-07-13T07:08:29;100642.78;;;18.89;46.15
40372;BME280;28564;53.346;-6.554;2023-07-13T07:10:56;100644.04;;;18.88;46.28
40372;BME280;28564;53.346;-6.554;2023-07-13T07:13:23;100645.70;;;18.88;46.38
40372;BME280;28564;53.346;-6.554;2023-07-13T07:15:50;100647.68;;;19.16;46.51
40372;BME280;28564;53.346;-6.554;2023-07-13T07:18:17;100648.29;;;18.70;46.57
40372;BME280;28564;53.346;-6.554;2023-07-13T07:20:44;100651.81;;;18.65;46.54
40372;BME280;28564;53.346;-6.554;2023-07-13T07:23:11;100649.31;;;18.88;46.71
40372;BME280;28564;53.346;-6.554;2023-07-13T07:25:38;100649.16;;;18.99;46.81
40372;BME280;28564;53.346;-6.554;2023-07-13T07:28:06;100655.78;;;19.26;46.34
40372;BME280;28564;53.346;-6.554;2023-07-13T07:30:33;100651.75;;;19.40;45.98
40372;BME280;28564;53.346;-6.554;2023-07-13T07:33:00;100646.78;;;19.46;45.99
40372;BME280;28564;53.346;-6.554;2023-07-13T07:35:27;100649.76;;;19.42;45.98
40372;BME280;28564;53.346;-6.554;2023-07-13T07:37:54;100651.20;;;19.36;46.07
40372;BME280;28564;53.346;-6.554;2023-07-13T07:40:21;100653.50;;;19.17;46.16
40372;BME280;28564;53.346;-6.554;2023-07-13T07:42:48;100657.28;;;19.32;46.15
40372;BME280;28564;53.346;-6.554;2023-07-13T07:45:15;100658.84;;;19.39;45.89
40372;BME280;28564;53.346;-6.554;2023-07-13T07:47:42;100660.41;;;19.63;45.91
40372;BME280;28564;53.346;-6.554;2023-07-13T07:50:10;100664.37;;;19.36;46.18
40372;BME280;28564;53.346;-6.554;2023-07-13T07:52:37;100668.76;;;19.75;45.68
40372;BME280;28564;53.346;-6.554;2023-07-13T07:55:06;100672.69;;;19.50;45.26
40372;BME280;28564;53.346;-6.554;2023-07-13T07:57:35;100671.38;;;19.55;45.20
40372;BME280;28564;53.346;-6.554;2023-07-13T08:00:02;100678.20;;;19.51;45.03
40372;BME280;28564;53.346;-6.554;2023-07-13T08:02:29;100672.87;;;19.65;44.98
40372;BME280;28564;53.346;-6.554;2023-07-13T08:04:57;100671.49;;;19.51;45.38
40372;BME280;28564;53.346;-6.554;2023-07-13T08:07:24;100672.80;;;20.03;45.31
40372;BME280;28564;53.346;-6.554;2023-07-13T08:09:52;100674.25;;;20.28;45.05
40372;BME280;28564;53.346;-6.554;2023-07-13T08:12:19;100674.21;;;20.23;44.64
40372;BME280;28564;53.346;-6.554;2023-07-13T08:14:50;100675.72;;;20.64;44.60
40372;BME280;28564;53.346;-6.554;2023-07-13T08:17:17;100672.86;;;20.28;44.08
40372;BME280;28564;53.346;-6.554;2023-07-13T08:19:44;100672.67;;;20.19;44.12
40372;BME280;28564;53.346;-6.554;2023-07-13T08:22:11;100673.18;;;20.20;44.17
40372;BME280;28564;53.346;-6.554;2023-07-13T08:24:38;100668.77;;;19.78;43.79
40372;BME280;28564;53.346;-6.554;2023-07-13T08:27:06;100669.28;;;20.03;44.08
40372;BME280;28564;53.346;-6.554;2023-07-13T08:29:34;100668.23;;;19.66;44.34
40372;BME280;28564;53.346;-6.554;2023-07-13T08:32:01;100672.44;;;19.75;44.81
40372;BME280;28564;53.346;-6.554;2023-07-13T08:34:28;100664.54;;;20.01;44.24
40372;BME280;28564;53.346;-6.554;2023-07-13T08:36:55;100658.97;;;19.91;44.24
40372;BME280;28564;53.346;-6.554;2023-07-13T08:39:22;100662.63;;;19.89;43.82
40372;BME280;28564;53.346;-6.554;2023-07-13T08:41:53;100666.15;;;19.88;43.88
40372;BME280;28564;53.346;-6.554;2023-07-13T08:44:31;100666.32;;;19.97;43.96
40372;BME280;28564;53.346;-6.554;2023-07-13T08:47:06;100660.48;;;20.18;43.98
40372;BME280;28564;53.346;-6.554;2023-07-13T08:49:34;100660.28;;;20.21;43.76
40372;BME280;28564;53.346;-6.554;2023-07-13T08:52:05;100658.62;;;20.53;42.95
40372;BME280;28564;53.346;-6.554;2023-07-13T08:54:36;100655.61;;;20.86;42.64
40372;BME280;28564;53.346;-6.554;2023-07-13T08:57:12;100657.27;;;20.93;41.79
40372;BME280;28564;53.346;-6.554;2023-07-13T08:59:40;100660.39;;;21.07;41.49
40372;BME280;28564;53.346;-6.554;2023-07-13T09:03:54;100656.47;;;20.94;41.16
40372;BME280;28564;53.346;-6.554;2023-07-13T09:06:31;100654.78;;;21.22;41.44
40372;BME280;28564;53.346;-6.554;2023-07-13T09:09:01;100653.65;;;21.49;41.39
40372;BME280;28564;53.346;-6.554;2023-07-13T09:11:41;100653.61;;;21.25;40.96
40372;BME280;28564;53.346;-6.554;2023-07-13T09:14:32;100656.54;;;21.50;41.43
40372;BME280;28564;53.346;-6.554;2023-07-13T09:17:03;100656.47;;;21.09;41.56
40372;BME280;28564;53.346;-6.554;2023-07-13T09:19:33;100655.86;;;21.10;41.60
40372;BME280;28564;53.346;-6.554;2023-07-13T09:22:04;100656.13;;;21.59;40.47
40372;BME280;28564;53.346;-6.554;2023-07-13T09:24:37;100653.45;;;21.68;40.60
40372;BME280;28564;53.346;-6.554;2023-07-13T09:27:14;100648.45;;;21.33;40.24
40372;BME280;28564;53.346;-6.554;2023-07-13T09:29:47;100654.35;;;21.96;40.30
40372;BME280;28564;53.346;-6.554;2023-07-13T09:32:19;100650.59;;;21.44;39.64
40372;BME280;28564;53.346;-6.554;2023-07-13T09:34:51;100650.92;;;21.25;39.59
40372;BME280;28564;53.346;-6.554;2023-07-13T09:37:21;100651.73;;;21.51;40.09
40372;BME280;28564;53.346;-6.554;2023-07-13T09:39:49;100656.08;;;21.33;40.86
40372;BME280;28564;53.346;-6.554;2023-07-13T09:42:20;100657.25;;;21.03;40.80
40372;BME280;28564;53.346;-6.554;2023-07-13T09:44:53;100658.29;;;21.27;40.77
40372;BME280;28564;53.346;-6.554;2023-07-13T09:47:22;100656.09;;;21.52;40.80
40372;BME280;28564;53.346;-6.554;2023-07-13T09:49:55;100651.62;;;21.62;40.11
40372;BME280;28564;53.346;-6.554;2023-07-13T09:52:22;100653.22;;;21.66;40.02
40372;BME280;28564;53.346;-6.554;2023-07-13T09:54:50;100651.78;;;21.78;38.90
40372;BME280;28564;53.346;-6.554;2023-07-13T09:57:20;100647.86;;;22.27;39.20
40372;BME280;28564;53.346;-6.554;2023-07-13T09:59:51;100648.02;;;21.77;39.05
40372;BME280;28564;53.346;-6.554;2023-07-13T10:02:35;100649.03;;;21.81;39.05
40372;BME280;28564;53.346;-6.554;2023-07-13T10:05:04;100653.32;;;21.86;38.85
40372;BME280;28564;53.346;-6.554;2023-07-13T10:07:39;100652.63;;;21.93;38.10
40372;BME280;28564;53.346;-6.554;2023-07-13T10:10:15;100654.51;;;21.93;36.78
40372;BME280;28564;53.346;-6.554;2023-07-13T10:12:44;100657.06;;;21.91;36.82
40372;BME280;28564;53.346;-6.554;2023-07-13T10:15:16;100661.05;;;22.01;36.97
40372;BME280;28564;53.346;-6.554;2023-07-13T10:17:44;100665.00;;;22.34;36.72
40372;BME280;28564;53.346;-6.554;2023-07-13T10:20:12;100666.64;;;22.82;36.88
40372;BME280;28564;53.346;-6.554;2023-07-13T10:22:44;100663.69;;;23.10;36.73
40372;BME280;28564;53.346;-6.554;2023-07-13T10:25:16;100662.98;;;23.44;35.60
40372;BME280;28564;53.346;-6.554;2023-07-13T10:27:43;100668.36;;;23.20;34.88
40372;BME280;28564;53.346;-6.554;2023-07-13T10:30:15;100670.31;;;23.29;35.16
40372;BME280;28564;53.346;-6.554;2023-07-13T10:32:44;100671.04;;;23.47;34.86
40372;BME280;28564;53.346;-6.554;2023-07-13T10:35:13;100663.51;;;23.32;34.65
40372;BME280;28564;53.346;-6.554;2023-07-13T10:37:47;100667.22;;;23.49;34.57
40372;BME280;28564;53.346;-6.554;2023-07-13T10:40:20;100668.37;;;23.61;34.48
40372;BME280;28564;53.346;-6.554;2023-07-13T10:42:51;100670.13;;;23.62;33.97
40372;BME280;28564;53.346;-6.554;2023-07-13T10:45:22;100667.70;;;23.85;33.82
40372;BME280;28564;53.346;-6.554;2023-07-13T10:47:52;100673.29;;;23.82;33.48
40372;BME280;28564;53.346;-6.554;2023-07-13T10:50:22;100670.10;;;23.94;33.60
40372;BME280;28564;53.346;-6.554;2023-07-13T10:52:51;100664.61;;;23.97;32.91
40372;BME280;28564;53.346;-6.554;2023-07-13T10:55:37;100668.55;;;24.21;32.86
40372;BME280;28564;53.346;-6.554;2023-07-13T10:58:13;100671.91;;;23.93;31.92
40372;BME280;28564;53.346;-6.554;2023-07-13T11:00:48;100671.84;;;23.69;32.53
40372;BME280;28564;53.346;-6.554;2023-07-13T11:03:18;100669.47;;;23.62;33.22
40372;BME280;28564;53.346;-6.554;2023-07-13T11:05:49;100669.94;;;23.34;33.60
40372;BME280;28564;53.346;-6.554;2023-07-13T11:08:21;100672.90;;;23.35;33.94
40372;BME280;28564;53.346;-6.554;2023-07-13T11:10:59;100679.03;;;23.27;34.00
40372;BME280;28564;53.346;-6.554;2023-07-13T11:14:00;100674.07;;;23.14;34.33
40372;BME280;28564;53.346;-6.554;2023-07-13T11:16:41;100677.20;;;23.17;34.47
40372;BME280;28564;53.346;-6.554;2023-07-13T11:19:27;100675.87;;;23.33;34.32
40372;BME280;28564;53.346;-6.554;2023-07-13T11:22:20;100677.41;;;23.04;34.13
40372;BME280;28564;53.346;-6.554;2023-07-13T11:24:54;100675.85;;;23.78;34.75
40372;BME280;28564;53.346;-6.554;2023-07-13T11:27:35;100675.99;;;23.95;33.29
40372;BME280;28564;53.346;-6.554;2023-07-13T11:30:23;100671.60;;;24.00;33.17
40372;BME280;28564;53.346;-6.554;2023-07-13T11:33:02;100672.61;;;24.68;32.70
40372;BME280;28564;53.346;-6.554;2023-07-13T11:35:29;100662.49;;;25.08;31.89
40372;BME280;28564;53.346;-6.554;2023-07-13T11:37:57;100661.15;;;25.13;31.86
40372;BME280;28564;53.346;-6.554;2023-07-13T11:40:27;100662.52;;;25.28;31.59
40372;BME280;28564;53.346;-6.554;2023-07-13T11:42:59;100671.00;;;25.49;31.18
40372;BME280;28564;53.346;-6.554;2023-07-13T11:45:27;100662.52;;;25.58;30.42
40372;BME280;28564;53.346;-6.554;2023-07-13T11:47:54;100660.29;;;25.49;30.71
40372;BME280;28564;53.346;-6.554;2023-07-13T11:50:24;100661.35;;;25.56;31.60
40372;BME280;28564;53.346;-6.554;2023-07-13T11:52:53;100663.15;;;25.55;31.17
40372;BME280;28564;53.346;-6.554;2023-07-13T11:55:22;100665.45;;;25.59;31.05
40372;BME280;28564;53.346;-6.554;2023-07-13T11:57:51;100662.90;;;25.66;30.94
40372;BME280;28564;53.346;-6.554;2023-07-13T12:00:23;100660.65;;;25.83;31.25
40372;BME280;28564;53.346;-6.554;2023-07-13T12:02:52;100660.55;;;26.48;31.24
40372;BME280;28564;53.346;-6.554;2023-07-13T12:05:20;100654.48;;;26.49;31.05
40372;BME280;28564;53.346;-6.554;2023-07-13T12:07:50;100654.42;;;26.00;30.64
40372;BME280;28564;53.346;-6.554;2023-07-13T12:10:19;100656.72;;;25.90;30.79
40372;BME280;28564;53.346;-6.554;2023-07-13T12:12:48;100658.16;;;25.86;30.41
40372;BME280;28564;53.346;-6.554;2023-07-13T12:15:16;100660.11;;;25.76;30.66
40372;BME280;28564;53.346;-6.554;2023-07-13T12:17:45;100652.82;;;25.62;30.46
40372;BME280;28564;53.346;-6.554;2023-07-13T12:20:20;100648.24;;;25.66;30.80
40372;BME280;28564;53.346;-6.554;2023-07-13T12:22:48;100648.92;;;26.07;30.85
40372;BME280;28564;53.346;-6.554;2023-07-13T12:25:17;100653.08;;;26.36;30.02
40372;BME280;28564;53.346;-6.554;2023-07-13T12:27:48;100650.39;;;26.33;29.37
40372;BME280;28564;53.346;-6.554;2023-07-13T12:30:26;100651.70;;;26.17;29.77
40372;BME280;28564;53.346;-6.554;2023-07-13T12:32:57;100643.81;;;25.92;29.69
40372;BME280;28564;53.346;-6.554;2023-07-13T12:35:28;100649.92;;;26.15;30.20
40372;BME280;28564;53.346;-6.554;2023-07-13T12:37:57;100650.79;;;26.19;29.37
40372;BME280;28564;53.346;-6.554;2023-07-13T12:40:28;100663.82;;;26.27;29.69
40372;BME280;28564;53.346;-6.554;2023-07-13T12:42:58;100658.28;;;26.47;29.61
40372;BME280;28564;53.346;-6.554;2023-07-13T12:45:27;100653.95;;;26.77;29.28
40372;BME280;28564;53.346;-6.554;2023-07-13T12:47:56;100653.22;;;27.08;29.15
40372;BME280;28564;53.346;-6.554;2023-07-13T12:50:29;100654.36;;;27.79;27.58
40372;BME280;28564;53.346;-6.554;2023-07-13T12:53:00;100645.39;;;27.99;27.60